sensor_id;sensor_type;location;lat;lon;timestamp;pressure;altitude;pressure_sealevel;temperature;humidity
66801;BME280;53703;50.326;19.122;2023-12-29T00:00:10;98619.97;;;17.61;48.17
66801;BME280;53703;50.326;19.122;2023-12-29T00:03:04;98608.66;;;17.60;48.08
66801;BME280;53703;50.326;19.122;2023-12-29T00:05:37;98608.21;;;17.61;48.26
66801;BME280;53703;50.326;19.122;2023-12-29T00:08:10;98603.05;;;17.63;48.04
66801;BME280;53703;50.326;19.122;2023-12-29T00:10:44;98603.21;;;17.63;47.91
66801;BME280;53703;50.326;19.122;2023-12-29T00:13:17;98605.01;;;17.65;47.77
66801;BME280;53703;50.326;19.122;2023-12-29T00:15:56;98601.21;;;17.64;47.79
66801;BME280;53703;50.326;19.122;2023-12-29T00:18:30;98598.96;;;17.58;48.12
66801;BME280;53703;50.326;19.122;2023-12-29T00:21:03;98601.64;;;17.55;48.18
66801;BME280;53703;50.326;19.122;2023-12-29T00:23:39;98608.25;;;17.62;48.07
66801;BME280;53703;50.326;19.122;2023-12-29T00:26:12;98607.33;;;17.63;47.97
66801;BME280;53703;50.326;19.122;2023-12-29T00:28:46;98600.43;;;17.64;47.96
66801;BME280;53703;50.326;19.122;2023-12-29T00:31:19;98592.43;;;17.61;47.86
66801;BME280;53703;50.326;19.122;2023-12-29T00:33:54;98583.90;;;17.58;48.07
66801;BME280;53703;50.326;19.122;2023-12-29T00:36:28;98581.27;;;17.64;47.97
66801;BME280;53703;50.326;19.122;2023-12-29T00:39:01;98577.80;;;17.56;48.03
66801;BME280;53703;50.326;19.122;2023-12-29T00:41:34;98577.92;;;17.61;47.87
66801;BME280;53703;50.326;19.122;2023-12-29T00:45:45;98574.02;;;17.54;48.05
66801;BME280;53703;50.326;19.122;2023-12-29T00:48:19;98573.64;;;17.28;48.82
66801;BME280;53703;50.326;19.122;2023-12-29T00:50:52;98576.90;;;17.07;49.11
66801;BME280;53703;50.326;19.122;2023-12-29T00:53:25;98578.11;;;17.03;49.40
66801;BME280;53703;50.326;19.122;2023-12-29T00:55:59;98581.00;;;16.99;49.69
66801;BME280;53703;50.326;19.122;2023-12-29T00:58:33;98577.70;;;16.93;49.83
66801;BME280;53703;50.326;19.122;2023-12-29T01:01:06;98576.67;;;16.85;50.12
66801;BME280;53703;50.326;19.122;2023-12-29T01:03:43;98580.60;;;16.85;50.14
66801;BME280;53703;50.326;19.122;2023-12-29T01:06:17;98581.81;;;16.83;50.11
66801;BME280;53703;50.326;19.122;2023-12-29T01:08:50;98582.58;;;16.82;50.26
66801;BME280;53703;50.326;19.122;2023-12-29T01:11:24;98578.16;;;16.80;50.37
66801;BME280;53703;50.326;19.122;2023-12-29T01:13:58;98575.02;;;16.78;50.34
66801;BME280;53703;50.326;19.122;2023-12-29T01:16:32;98572.46;;;16.77;50.35
66801;BME280;53703;50.326;19.122;2023-12-29T01:19:05;98571.59;;;16.89;49.80
66801;BME280;53703;50.326;19.122;2023-12-29T01:21:41;98568.27;;;16.90;49.88
66801;BME280;53703;50.326;19.122;2023-12-29T01:24:15;98556.98;;;16.80;50.30
66801;BME280;53703;50.326;19.122;2023-12-29T01:26:53;98557.34;;;16.77;50.35
66801;BME280;53703;50.326;19.122;2023-12-29T01:29:27;98558.08;;;16.72;50.52
66801;BME280;53703;50.326;19.122;2023-12-29T01:32:00;98557.20;;;16.72;50.48
66801;BME280;53703;50.326;19.122;2023-12-29T01:34:35;98551.65;;;16.71;50.67
66801;BME280;53703;50.326;19.122;2023-12-29T01:37:09;98549.63;;;16.69;50.51
66801;BME280;53703;50.326;19.122;2023-12-29T01:39:42;98543.84;;;16.70;50.55
66801;BME280;53703;50.326;19.122;2023-12-29T01:42:16;98546.09;;;16.69;50.52
66801;BME280;53703;50.326;19.122;2023-12-29T01:44:49;98552.51;;;16.68;50.66
66801;BME280;53703;50.326;19.122;2023-12-29T01:47:26;98547.92;;;16.67;50.69
66801;BME280;53703;50.326;19.122;2023-12-29T01:50:00;98541.33;;;16.64;50.85
66801;BME280;53703;50.326;19.122;2023-12-29T01:52:34;98541.79;;;16.61;50.87
66801;BME280;53703;50.326;19.122;2023-12-29T01:55:11;98538.60;;;16.59;50.88
66801;BME280;53703;50.326;19.122;2023-12-29T01:57:46;98535.06;;;16.60;50.95
66801;BME280;53703;50.326;19.122;2023-12-29T02:00:21;98523.05;;;16.56;50.92
66801;BME280;53703;50.326;19.122;2023-12-29T02:02:55;98520.71;;;16.68;50.54
66801;BME280;53703;50.326;19.122;2023-12-29T02:05:29;98521.81;;;16.61;50.72
66801;BME280;53703;50.326;19.122;2023-12-29T02:08:05;98520.59;;;16.55;51.00
66801;BME280;53703;50.326;19.122;2023-12-29T02:10:41;98511.91;;;16.54;50.89
66801;BME280;53703;50.326;19.122;2023-12-29T02:13:14;98512.74;;;16.53;50.93
66801;BME280;53703;50.326;19.122;2023-12-29T02:15:48;98509.24;;;16.50;51.01
66801;BME280;53703;50.326;19.122;2023-12-29T02:18:25;98505.13;;;16.51;50.96
66801;BME280;53703;50.326;19.122;2023-12-29T02:20:59;98507.43;;;16.47;51.05
66801;BME280;53703;50.326;19.122;2023-12-29T02:23:34;98506.88;;;16.44;51.00
66801;BME280;53703;50.326;19.122;2023-12-29T02:26:11;98504.60;;;16.45;51.07
66801;BME280;53703;50.326;19.122;2023-12-29T02:28:56;98504.45;;;16.42;51.02
66801;BME280;53703;50.326;19.122;2023-12-29T02:31:31;98504.36;;;16.42;51.06
66801;BME280;53703;50.326;19.122;2023-12-29T02:34:08;98501.64;;;16.43;50.98
66801;BME280;53703;50.326;19.122;2023-12-29T02:36:45;98507.48;;;16.43;50.83
66801;BME280;53703;50.326;19.122;2023-12-29T02:39:20;98509.32;;;16.42;50.88
66801;BME280;53703;50.326;19.122;2023-12-29T02:41:54;98500.65;;;16.40;50.89
66801;BME280;53703;50.326;19.122;2023-12-29T02:44:28;98503.09;;;16.39;50.94
66801;BME280;53703;50.326;19.122;2023-12-29T02:47:01;98498.68;;;16.39;50.90
66801;BME280;53703;50.326;19.122;2023-12-29T02:49:36;98489.38;;;16.41;50.79
66801;BME280;53703;50.326;19.122;2023-12-29T02:52:09;98482.52;;;16.39;51.01
66801;BME280;53703;50.326;19.122;2023-12-29T02:54:43;98485.85;;;16.37;50.77
66801;BME280;53703;50.326;19.122;2023-12-29T02:57:16;98490.46;;;16.36;50.89
66801;BME280;53703;50.326;19.122;2023-12-29T02:59:50;98483.26;;;16.37;50.79
66801;BME280;53703;50.326;19.122;2023-12-29T03:02:23;98480.03;;;16.32;50.87
66801;BME280;53703;50.326;19.122;2023-12-29T03:04:57;98472.02;;;16.40;50.68
66801;BME280;53703;50.326;19.122;2023-12-29T03:07:30;98469.16;;;16.37;50.75
66801;BME280;53703;50.326;19.122;2023-12-29T03:10:04;98469.23;;;16.34;50.79
66801;BME280;53703;50.326;19.122;2023-12-29T03:12:37;98463.59;;;16.30;50.81
66801;BME280;53703;50.326;19.122;2023-12-29T03:15:11;98467.52;;;16.30;50.82
66801;BME280;53703;50.326;19.122;2023-12-29T03:17:45;98458.70;;;16.28;50.91
66801;BME280;53703;50.326;19.122;2023-12-29T03:20:19;98458.65;;;16.28;50.89
66801;BME280;53703;50.326;19.122;2023-12-29T03:22:52;98456.98;;;16.30;50.79
66801;BME280;53703;50.326;19.122;2023-12-29T03:25:27;98453.95;;;16.31;50.76
66801;BME280;53703;50.326;19.122;2023-12-29T03:28:00;98457.61;;;16.28;50.88
66801;BME280;53703;50.326;19.122;2023-12-29T03:30:34;98462.73;;;16.21;51.04
66801;BME280;53703;50.326;19.122;2023-12-29T03:33:08;98463.20;;;16.26;50.95
66801;BME280;53703;50.326;19.122;2023-12-29T03:35:41;98463.27;;;16.25;51.00
66801;BME280;53703;50.326;19.122;2023-12-29T03:38:15;98455.20;;;16.29;50.81
66801;BME280;53703;50.326;19.122;2023-12-29T03:40:49;98457.98;;;16.23;50.92
66801;BME280;53703;50.326;19.122;2023-12-29T03:43:22;98465.69;;;16.23;50.98
66801;BME280;53703;50.326;19.122;2023-12-29T03:45:55;98459.73;;;16.20;51.04
66801;BME280;53703;50.326;19.122;2023-12-29T03:48:29;98456.73;;;16.20;51.01
66801;BME280;53703;50.326;19.122;2023-12-29T03:51:03;98451.13;;;16.17;51.09
66801;BME280;53703;50.326;19.122;2023-12-29T03:53:36;98447.39;;;16.20;51.02
66801;BME280;53703;50.326;19.122;2023-12-29T03:56:14;98442.89;;;16.18;51.16
66801;BME280;53703;50.326;19.122;2023-12-29T03:58:48;98442.09;;;16.17;51.07
66801;BME280;53703;50.326;19.122;2023-12-29T04:01:22;98447.08;;;16.16;51.13
66801;BME280;53703;50.326;19.122;2023-12-29T04:03:57;98445.20;;;16.18;50.99
66801;BME280;53703;50.326;19.122;2023-12-29T04:06:31;98444.52;;;16.17;50.95
66801;BME280;53703;50.326;19.122;2023-12-29T04:09:04;98449.30;;;16.17;51.04
66801;BME280;53703;50.326;19.122;2023-12-29T04:11:38;98449.42;;;16.18;51.00
66801;BME280;53703;50.326;19.122;2023-12-29T04:14:12;98455.60;;;16.19;50.95
66801;BME280;53703;50.326;19.122;2023-12-29T04:16:45;98453.61;;;16.18;50.98
66801;BME280;53703;50.326;19.122;2023-12-29T04:19:19;98449.82;;;16.15;51.12
66801;BME280;53703;50.326;19.122;2023-12-29T04:21:52;98456.65;;;16.15;51.13
66801;BME280;53703;50.326;19.122;2023-12-29T04:24:26;98455.77;;;16.10;51.24
66801;BME280;53703;50.326;19.122;2023-12-29T04:26:59;98452.90;;;16.11;51.20
66801;BME280;53703;50.326;19.122;2023-12-29T04:29:33;98451.46;;;16.09;51.30
66801;BME280;53703;50.326;19.122;2023-12-29T04:32:07;98442.61;;;16.11;51.32
66801;BME280;53703;50.326;19.122;2023-12-29T04:34:40;98439.67;;;16.18;51.04
66801;BME280;53703;50.326;19.122;2023-12-29T04:37:13;98433.86;;;16.11;51.17
66801;BME280;53703;50.326;19.122;2023-12-29T04:39:47;98434.89;;;16.09;51.36
66801;BME280;53703;50.326;19.122;2023-12-29T04:42:20;98434.52;;;16.10;51.36
66801;BME280;53703;50.326;19.122;2023-12-29T04:44:54;98432.81;;;16.06;51.32
66801;BME280;53703;50.326;19.122;2023-12-29T04:47:27;98437.17;;;16.04;51.40
66801;BME280;53703;50.326;19.122;2023-12-29T04:50:00;98435.60;;;16.07;51.32
66801;BME280;53703;50.326;19.122;2023-12-29T04:52:34;98433.50;;;16.03;51.42
66801;BME280;53703;50.326;19.122;2023-12-29T04:55:09;98436.44;;;16.04;51.35
66801;BME280;53703;50.326;19.122;2023-12-29T04:57:43;98434.76;;;16.07;51.17
66801;BME280;53703;50.326;19.122;2023-12-29T05:00:18;98433.67;;;16.05;51.22
66801;BME280;53703;50.326;19.122;2023-12-29T05:02:51;98424.00;;;16.01;51.36
66801;BME280;53703;50.326;19.122;2023-12-29T05:05:25;98416.27;;;16.02;51.38
66801;BME280;53703;50.326;19.122;2023-12-29T05:07:58;98417.33;;;15.99;51.43
66801;BME280;53703;50.326;19.122;2023-12-29T05:10:32;98418.56;;;16.01;51.39
66801;BME280;53703;50.326;19.122;2023-12-29T05:13:07;98414.55;;;15.98;51.41
66801;BME280;53703;50.326;19.122;2023-12-29T05:15:40;98416.50;;;16.00;51.39
66801;BME280;53703;50.326;19.122;2023-12-29T05:18:14;98429.25;;;16.00;51.49
66801;BME280;53703;50.326;19.122;2023-12-29T05:20:48;98427.88;;;16.02;51.55
66801;BME280;53703;50.326;19.122;2023-12-29T05:23:21;98424.76;;;16.00;51.53
66801;BME280;53703;50.326;19.122;2023-12-29T05:25:55;98425.30;;;16.00;51.58
66801;BME280;53703;50.326;19.122;2023-12-29T05:28:28;98429.23;;;16.00;51.63
66801;BME280;53703;50.326;19.122;2023-12-29T05:31:01;98432.83;;;15.99;51.60
66801;BME280;53703;50.326;19.122;2023-12-29T05:33:36;98429.19;;;16.01;51.56
66801;BME280;53703;50.326;19.122;2023-12-29T05:36:11;98424.19;;;15.97;51.70
66801;BME280;53703;50.326;19.122;2023-12-29T05:38:46;98420.45;;;15.95;51.82
66801;BME280;53703;50.326;19.122;2023-12-29T05:41:20;98415.82;;;16.03;51.68
66801;BME280;53703;50.326;19.122;2023-12-29T05:43:53;98414.08;;;15.95;51.95
66801;BME280;53703;50.326;19.122;2023-12-29T05:46:29;98410.20;;;15.95;51.95
66801;BME280;53703;50.326;19.122;2023-12-29T05:49:02;98408.52;;;16.01;51.80
66801;BME280;53703;50.326;19.122;2023-12-29T05:51:36;98411.48;;;15.95;51.84
66801;BME280;53703;50.326;19.122;2023-12-29T05:54:10;98418.25;;;15.93;51.93
66801;BME280;53703;50.326;19.122;2023-12-29T05:56:44;98420.27;;;15.95;51.89
66801;BME280;53703;50.326;19.122;2023-12-29T05:59:18;98421.14;;;16.02;51.68
66801;BME280;53703;50.326;19.122;2023-12-29T06:01:52;98406.86;;;15.92;51.88
66801;BME280;53703;50.326;19.122;2023-12-29T06:04:26;98400.33;;;15.91;51.97
66801;BME280;53703;50.326;19.122;2023-12-29T06:06:59;98407.79;;;15.95;51.80
66801;BME280;53703;50.326;19.122;2023-12-29T06:09:33;98416.00;;;15.88;52.04
66801;BME280;53703;50.326;19.122;2023-12-29T06:12:07;98420.56;;;15.88;52.00
66801;BME280;53703;50.326;19.122;2023-12-29T06:14:41;98423.52;;;15.89;51.94
66801;BME280;53703;50.326;19.122;2023-12-29T06:17:15;98425.40;;;15.95;51.76
66801;BME280;53703;50.326;19.122;2023-12-29T06:19:48;98421.82;;;15.92;51.94
66801;BME280;53703;50.326;19.122;2023-12-29T06:22:22;98410.54;;;15.89;52.01
66801;BME280;53703;50.326;19.122;2023-12-29T06:24:55;98403.34;;;15.85;51.98
66801;BME280;53703;50.326;19.122;2023-12-29T06:27:29;98393.69;;;15.88;51.87
66801;BME280;53703;50.326;19.122;2023-12-29T06:30:06;98399.20;;;15.86;51.92
66801;BME280;53703;50.326;19.122;2023-12-29T06:32:40;98408.73;;;15.87;51.93
66801;BME280;53703;50.326;19.122;2023-12-29T06:35:13;98410.33;;;15.88;51.80
66801;BME280;53703;50.326;19.122;2023-12-29T06:37:47;98405.77;;;15.85;51.80
66801;BME280;53703;50.326;19.122;2023-12-29T06:40:21;98397.35;;;15.87;51.71
66801;BME280;53703;50.326;19.122;2023-12-29T06:42:54;98394.56;;;15.82;51.81
66801;BME280;53703;50.326;19.122;2023-12-29T06:45:28;98396.37;;;15.86;51.70
66801;BME280;53703;50.326;19.122;2023-12-29T06:48:01;98389.83;;;15.93;51.41
66801;BME280;53703;50.326;19.122;2023-12-29T06:50:37;98393.98;;;15.85;51.68
66801;BME280;53703;50.326;19.122;2023-12-29T06:53:10;98403.63;;;15.82;51.78
66801;BME280;53703;50.326;19.122;2023-12-29T06:55:44;98406.06;;;15.84;51.66
66801;BME280;53703;50.326;19.122;2023-12-29T06:58:18;98407.44;;;15.97;51.33
66801;BME280;53703;50.326;19.122;2023-12-29T07:00:51;98409.80;;;15.86;51.63
66801;BME280;53703;50.326;19.122;2023-12-29T07:03:25;98407.61;;;15.84;51.67
66801;BME280;53703;50.326;19.122;2023-12-29T07:06:01;98410.73;;;15.85;51.55
66801;BME280;53703;50.326;19.122;2023-12-29T07:08:47;98412.12;;;15.87;51.57
66801;BME280;53703;50.326;19.122;2023-12-29T07:11:20;98417.46;;;15.84;51.61
66801;BME280;53703;50.326;19.122;2023-12-29T07:13:54;98419.71;;;15.83;51.80
66801;BME280;53703;50.326;19.122;2023-12-29T07:16:27;98423.70;;;15.88;51.72
66801;BME280;53703;50.326;19.122;2023-12-29T07:19:01;98427.68;;;15.89;51.95
66801;BME280;53703;50.326;19.122;2023-12-29T07:21:35;98434.90;;;16.02;51.46
66801;BME280;53703;50.326;19.122;2023-12-29T07:24:09;98434.23;;;15.89;51.99
66801;BME280;53703;50.326;19.122;2023-12-29T07:26:43;98427.17;;;15.90;52.09
66801;BME280;53703;50.326;19.122;2023-12-29T07:29:16;98425.70;;;15.96;51.90
66801;BME280;53703;50.326;19.122;2023-12-29T07:31:50;98424.56;;;15.85;52.33
66801;BME280;53703;50.326;19.122;2023-12-29T07:34:23;98423.38;;;15.87;52.51
66801;BME280;53703;50.326;19.122;2023-12-29T07:36:57;98425.77;;;15.86;52.31
66801;BME280;53703;50.326;19.122;2023-12-29T07:39:31;98427.52;;;15.93;52.10
66801;BME280;53703;50.326;19.122;2023-12-29T07:42:05;98421.84;;;15.92;52.13
66801;BME280;53703;50.326;19.122;2023-12-29T07:44:39;98419.88;;;15.93;52.06
66801;BME280;53703;50.326;19.122;2023-12-29T07:47:12;98416.88;;;15.88;52.19
66801;BME280;53703;50.326;19.122;2023-12-29T07:49:46;98418.75;;;15.88;52.21
66801;BME280;53703;50.326;19.122;2023-12-29T07:52:19;98418.27;;;15.90;52.03
66801;BME280;53703;50.326;19.122;2023-12-29T07:54:53;98418.93;;;15.90;52.07
66801;BME280;53703;50.326;19.122;2023-12-29T07:57:26;98418.29;;;15.88;52.12
66801;BME280;53703;50.326;19.122;2023-12-29T08:00:00;98421.42;;;15.90;52.11
66801;BME280;53703;50.326;19.122;2023-12-29T08:02:34;98417.48;;;15.91;51.92
66801;BME280;53703;50.326;19.122;2023-12-29T08:05:08;98421.08;;;15.96;51.82
66801;BME280;53703;50.326;19.122;2023-12-29T08:07:42;98419.08;;;15.90;51.96
66801;BME280;53703;50.326;19.122;2023-12-29T08:10:15;98421.46;;;15.89;52.07
66801;BME280;53703;50.326;19.122;2023-12-29T08:12:49;98418.77;;;15.88;51.94
66801;BME280;53703;50.326;19.122;2023-12-29T08:15:23;98416.80;;;15.88;51.88
66801;BME280;53703;50.326;19.122;2023-12-29T08:17:57;98418.81;;;15.87;51.99
66801;BME280;53703;50.326;19.122;2023-12-29T08:20:30;98425.35;;;15.85;52.00
66801;BME280;53703;50.326;19.122;2023-12-29T08:23:05;98431.02;;;15.90;51.68
66801;BME280;53703;50.326;19.122;2023-12-29T08:25:38;98431.04;;;15.89;51.89
66801;BME280;53703;50.326;19.122;2023-12-29T08:28:11;98430.07;;;15.92;51.73
66801;BME280;53703;50.326;19.122;2023-12-29T08:30:45;98435.10;;;15.92;51.66
66801;BME280;53703;50.326;19.122;2023-12-29T08:33:19;98437.39;;;15.94;51.52
66801;BME280;53703;50.326;19.122;2023-12-29T08:35:52;98442.16;;;15.96;51.39
66801;BME280;53703;50.326;19.122;2023-12-29T08:38:25;98440.20;;;15.94;51.50
66801;BME280;53703;50.326;19.122;2023-12-29T08:40:59;98439.91;;;15.97;51.50
66801;BME280;53703;50.326;19.122;2023-12-29T08:43:32;98434.38;;;15.93;51.55
66801;BME280;53703;50.326;19.122;2023-12-29T08:46:08;98436.80;;;15.98;51.56
66801;BME280;53703;50.326;19.122;2023-12-29T08:48:42;98441.09;;;15.99;51.44
66801;BME280;53703;50.326;19.122;2023-12-29T08:51:15;98443.82;;;16.01;51.39
66801;BME280;53703;50.326;19.122;2023-12-29T08:53:49;98441.73;;;16.02;51.21
66801;BME280;53703;50.326;19.122;2023-12-29T08:56:22;98443.06;;;16.04;51.38
66801;BME280;53703;50.326;19.122;2023-12-29T08:58:59;98444.70;;;16.01;51.37
66801;BME280;53703;50.326;19.122;2023-12-29T09:01:33;98442.27;;;16.01;51.52
66801;BME280;53703;50.326;19.122;2023-12-29T09:04:06;98442.23;;;15.94;51.67
66801;BME280;53703;50.326;19.122;2023-12-29T09:06:41;98433.50;;;15.98;51.62
66801;BME280;53703;50.326;19.122;2023-12-29T09:09:14;98436.32;;;15.97;51.64
66801;BME280;53703;50.326;19.122;2023-12-29T09:11:48;98436.48;;;15.96;51.74
66801;BME280;53703;50.326;19.122;2023-12-29T09:14:21;98433.31;;;15.94;51.71
66801;BME280;53703;50.326;19.122;2023-12-29T09:16:54;98433.66;;;15.98;51.66
66801;BME280;53703;50.326;19.122;2023-12-29T09:19:28;98434.88;;;16.02;51.55
66801;BME280;53703;50.326;19.122;2023-12-29T09:22:10;98434.38;;;15.98;51.63
66801;BME280;53703;50.326;19.122;2023-12-29T09:24:44;98434.16;;;15.96;51.63
66801;BME280;53703;50.326;19.122;2023-12-29T09:27:18;98434.63;;;15.98;51.59
66801;BME280;53703;50.326;19.122;2023-12-29T09:29:51;98432.27;;;15.97;51.63
66801;BME280;53703;50.326;19.122;2023-12-29T09:32:24;98427.98;;;16.02;51.36
66801;BME280;53703;50.326;19.122;2023-12-29T09:34:58;98424.00;;;15.99;51.50
66801;BME280;53703;50.326;19.122;2023-12-29T09:37:31;98416.91;;;15.98;51.43
66801;BME280;53703;50.326;19.122;2023-12-29T09:40:06;98409.91;;;15.98;51.45
66801;BME280;53703;50.326;19.122;2023-12-29T09:42:40;98407.21;;;15.94;51.53
66801;BME280;53703;50.326;19.122;2023-12-29T09:45:19;98403.76;;;15.92;51.53
66801;BME280;53703;50.326;19.122;2023-12-29T09:47:56;98400.44;;;15.94;51.55
66801;BME280;53703;50.326;19.122;2023-12-29T09:50:30;98397.87;;;15.93;51.49
66801;BME280;53703;50.326;19.122;2023-12-29T09:53:05;98393.24;;;15.98;51.36
66801;BME280;53703;50.326;19.122;2023-12-29T09:55:39;98389.17;;;15.94;51.47
66801;BME280;53703;50.326;19.122;2023-12-29T09:58:13;98387.29;;;15.96;51.40
66801;BME280;53703;50.326;19.122;2023-12-29T10:00:50;98384.77;;;15.92;51.55
66801;BME280;53703;50.326;19.122;2023-12-29T10:03:24;98386.98;;;15.92;51.59
66801;BME280;53703;50.326;19.122;2023-12-29T10:06:00;98385.70;;;15.94;51.58
66801;BME280;53703;50.326;19.122;2023-12-29T10:08:35;98397.11;;;15.94;51.46
66801;BME280;53703;50.326;19.122;2023-12-29T10:11:11;98398.93;;;15.96;51.53
66801;BME280;53703;50.326;19.122;2023-12-29T10:13:46;98401.88;;;16.00;51.41
66801;BME280;53703;50.326;19.122;2023-12-29T10:16:30;98396.98;;;15.97;51.46
66801;BME280;53703;50.326;19.122;2023-12-29T10:19:13;98396.52;;;15.52;49.88
66801;BME280;53703;50.326;19.122;2023-12-29T10:21:59;98387.36;;;15.66;50.26
66801;BME280;53703;50.326;19.122;2023-12-29T10:24:36;98382.81;;;15.85;51.12
66801;BME280;53703;50.326;19.122;2023-12-29T10:27:10;98379.05;;;15.95;50.97
66801;BME280;53703;50.326;19.122;2023-12-29T10:29:43;98380.70;;;15.92;50.82
66801;BME280;53703;50.326;19.122;2023-12-29T10:32:17;98380.00;;;15.81;51.26
66801;BME280;53703;50.326;19.122;2023-12-29T10:34:50;98385.21;;;15.79;51.40
66801;BME280;53703;50.326;19.122;2023-12-29T10:37:27;98384.89;;;15.82;51.30
66801;BME280;53703;50.326;19.122;2023-12-29T10:40:00;98384.25;;;15.79;51.44
66801;BME280;53703;50.326;19.122;2023-12-29T10:42:34;98384.18;;;15.86;51.14
66801;BME280;53703;50.326;19.122;2023-12-29T10:45:12;98371.32;;;15.87;50.81
66801;BME280;53703;50.326;19.122;2023-12-29T10:47:47;98375.69;;;15.91;50.57
66801;BME280;53703;50.326;19.122;2023-12-29T10:50:21;98375.31;;;16.03;50.28
66801;BME280;53703;50.326;19.122;2023-12-29T10:53:11;98372.30;;;15.90;50.94
66801;BME280;53703;50.326;19.122;2023-12-29T10:55:45;98359.55;;;16.02;50.67
66801;BME280;53703;50.326;19.122;2023-12-29T10:58:20;98354.64;;;16.01;51.00
66801;BME280;53703;50.326;19.122;2023-12-29T11:00:53;98352.52;;;15.96;51.15
66801;BME280;53703;50.326;19.122;2023-12-29T11:03:27;98344.63;;;16.02;50.97
66801;BME280;53703;50.326;19.122;2023-12-29T11:06:02;98343.96;;;16.13;50.87
66801;BME280;53703;50.326;19.122;2023-12-29T11:08:36;98348.48;;;15.98;51.47
66801;BME280;53703;50.326;19.122;2023-12-29T11:11:10;98351.80;;;15.98;51.55
66801;BME280;53703;50.326;19.122;2023-12-29T11:13:43;98350.25;;;15.94;51.69
66801;BME280;53703;50.326;19.122;2023-12-29T11:16:18;98349.27;;;15.93;51.90
66801;BME280;53703;50.326;19.122;2023-12-29T11:18:54;98342.69;;;15.93;51.71
66801;BME280;53703;50.326;19.122;2023-12-29T11:21:31;98347.79;;;15.95;51.87
66801;BME280;53703;50.326;19.122;2023-12-29T11:24:08;98349.48;;;15.97;51.80
66801;BME280;53703;50.326;19.122;2023-12-29T11:26:45;98351.48;;;15.95;51.78
66801;BME280;53703;50.326;19.122;2023-12-29T11:29:18;98354.23;;;15.95;51.84
66801;BME280;53703;50.326;19.122;2023-12-29T11:31:53;98352.15;;;15.99;51.75
66801;BME280;53703;50.326;19.122;2023-12-29T11:34:33;98352.22;;;15.96;51.90
66801;BME280;53703;50.326;19.122;2023-12-29T11:37:21;98348.52;;;15.99;51.82
66801;BME280;53703;50.326;19.122;2023-12-29T11:40:09;98346.30;;;16.01;51.73
66801;BME280;53703;50.326;19.122;2023-12-29T11:42:45;98345.75;;;16.01;51.69
66801;BME280;53703;50.326;19.122;2023-12-29T11:45:30;98348.29;;;16.02;51.66
66801;BME280;53703;50.326;19.122;2023-12-29T11:48:05;98347.44;;;16.02;51.66
66801;BME280;53703;50.326;19.122;2023-12-29T11:50:40;98343.55;;;16.01;51.64
66801;BME280;53703;50.326;19.122;2023-12-29T11:53:31;98343.35;;;16.02;51.50
66801;BME280;53703;50.326;19.122;2023-12-29T11:56:16;98342.01;;;16.11;51.40
66801;BME280;53703;50.326;19.122;2023-12-29T11:58:50;98338.41;;;16.10;51.30
66801;BME280;53703;50.326;19.122;2023-12-29T12:01:37;98339.66;;;16.10;51.23
66801;BME280;53703;50.326;19.122;2023-12-29T12:04:37;98347.73;;;16.11;51.18
66801;BME280;53703;50.326;19.122;2023-12-29T12:10:36;98339.79;;;16.08;51.13
66801;BME280;53703;50.326;19.122;2023-12-29T12:13:11;98338.23;;;16.11;51.04
66801;BME280;53703;50.326;19.122;2023-12-29T12:15:45;98344.23;;;16.10;50.98
66801;BME280;53703;50.326;19.122;2023-12-29T12:18:18;98340.58;;;16.16;50.72
66801;BME280;53703;50.326;19.122;2023-12-29T12:20:54;98338.84;;;16.16;50.42
66801;BME280;53703;50.326;19.122;2023-12-29T12:23:30;98337.95;;;16.15;50.93
66801;BME280;53703;50.326;19.122;2023-12-29T12:26:06;98336.58;;;16.09;50.97
66801;BME280;53703;50.326;19.122;2023-12-29T12:28:40;98342.05;;;16.08;51.10
66801;BME280;53703;50.326;19.122;2023-12-29T12:31:17;98331.36;;;16.11;51.07
66801;BME280;53703;50.326;19.122;2023-12-29T12:33:58;98324.78;;;16.11;51.17
66801;BME280;53703;50.326;19.122;2023-12-29T12:36:32;98327.22;;;16.06;51.08
66801;BME280;53703;50.326;19.122;2023-12-29T12:39:06;98325.04;;;16.09;50.99
66801;BME280;53703;50.326;19.122;2023-12-29T12:41:39;98323.23;;;16.09;50.97
66801;BME280;53703;50.326;19.122;2023-12-29T12:44:14;98324.94;;;16.11;50.93
66801;BME280;53703;50.326;19.122;2023-12-29T12:46:55;98319.52;;;16.07;51.13
66801;BME280;53703;50.326;19.122;2023-12-29T12:49:32;98318.02;;;16.11;51.01
66801;BME280;53703;50.326;19.122;2023-12-29T12:52:06;98321.41;;;16.12;51.08
66801;BME280;53703;50.326;19.122;2023-12-29T12:54:40;98315.59;;;16.12;51.03
66801;BME280;53703;50.326;19.122;2023-12-29T12:57:13;98320.14;;;16.14;51.01
66801;BME280;53703;50.326;19.122;2023-12-29T12:59:51;98318.66;;;16.09;51.21
66801;BME280;53703;50.326;19.122;2023-12-29T13:02:27;98322.88;;;16.11;50.91
66801;BME280;53703;50.326;19.122;2023-12-29T13:05:01;98324.52;;;16.16;50.77
66801;BME280;53703;50.326;19.122;2023-12-29T13:07:39;98324.80;;;16.10;51.00
66801;BME280;53703;50.326;19.122;2023-12-29T13:10:13;98321.77;;;16.11;51.02
66801;BME280;53703;50.326;19.122;2023-12-29T13:12:56;98325.14;;;16.13;50.95
66801;BME280;53703;50.326;19.122;2023-12-29T13:15:30;98325.40;;;16.09;51.05
66801;BME280;53703;50.326;19.122;2023-12-29T13:18:04;98324.02;;;16.10;50.93
66801;BME280;53703;50.326;19.122;2023-12-29T13:20:47;98325.36;;;16.12;50.68
66801;BME280;53703;50.326;19.122;2023-12-29T13:23:26;98326.11;;;16.11;50.50
66801;BME280;53703;50.326;19.122;2023-12-29T13:26:07;98322.21;;;16.15;51.16
66801;BME280;53703;50.326;19.122;2023-12-29T13:28:42;98320.84;;;16.13;50.94
66801;BME280;53703;50.326;19.122;2023-12-29T13:31:16;98320.90;;;16.01;51.44
66801;BME280;53703;50.326;19.122;2023-12-29T13:33:59;98317.00;;;15.99;51.45